Time;durP1;ratioP1;P1;durP2;ratioP2;P2;SDS_P1;SDS_P2;PMS_P1;PMS_P2;Temp;Humidity;BMP_temperature;BMP_pressure;BME280_temperature;BME280_humidity;BME280_pressure;Samples;Min_cycle;Max_cycle;Signal;HPM_P1;HPM_P2
2023/03/21 00:01:55;;;;;;;12.52;8.65;;;;;;;14.56;38.24;94754.44;4965462;28;20306;-66
2023/03/21 00:04:23;;;;;;;13.80;9.25;;;;;;;14.60;36.92;94749.63;4991766;28;20243;-65
2023/03/21 00:06:49;;;;;;;14.88;9.43;;;;;;;14.37;37.47;94741.72;4971371;28;20185;-64
2023/03/21 00:09:15;;;;;;;16.98;10.52;;;;;;;13.81;38.95;94752.66;4974026;28;20189;-69
2023/03/21 00:11:40;;;;;;;15.18;9.98;;;;;;;14.05;38.24;94748.97;4994449;28;20296;-66
2023/03/21 00:14:07;;;;;;;13.93;10.00;;;;;;;13.94;38.53;94757.34;5000598;28;20236;-67
2023/03/21 00:16:34;;;;;;;17.50;12.18;;;;;;;13.36;39.88;94758.78;4967622;28;20240;-66
2023/03/21 00:19:02;;;;;;;19.13;13.25;;;;;;;13.55;39.77;94746.91;4964989;28;20472;-64
2023/03/21 00:21:31;;;;;;;15.45;11.77;;;;;;;13.78;39.22;94741.63;4971573;28;20196;-65
2023/03/21 00:23:57;;;;;;;17.58;13.63;;;;;;;13.91;38.98;94744.50;4968854;28;20220;-64
2023/03/21 00:26:23;;;;;;;17.90;13.25;;;;;;;13.95;38.95;94742.28;4968847;28;20225;-64
2023/03/21 00:28:49;;;;;;;18.90;13.05;;;;;;;14.09;38.68;94758.22;4969028;28;20248;-67
2023/03/21 00:31:15;;;;;;;19.65;13.77;;;;;;;13.84;39.27;94749.66;4969153;28;20248;-72
2023/03/21 00:33:41;;;;;;;23.20;14.73;;;;;;;13.97;39.01;94754.34;4968567;28;20216;-69
2023/03/21 00:36:08;;;;;;;20.73;15.77;;;;;;;13.95;39.32;94758.97;4966178;28;20188;-67
2023/03/21 00:38:35;;;;;;;23.88;15.50;;;;;;;13.50;40.27;94760.69;4966869;28;20231;-66
2023/03/21 00:41:04;;;;;;;23.17;15.77;;;;;;;13.20;41.04;94764.94;4960088;28;20227;-66
2023/03/21 00:43:29;;;;;;;19.48;14.98;;;;;;;13.23;40.82;94754.03;4960538;28;20216;-66
2023/03/21 00:45:57;;;;;;;21.25;15.13;;;;;;;13.45;40.46;94757.72;4970481;28;20196;-69
2023/03/21 00:48:23;;;;;;;22.08;15.82;;;;;;;13.55;40.13;94753.03;4964573;28;20215;-68
2023/03/21 00:50:51;;;;;;;20.45;14.90;;;;;;;13.29;40.99;94753.38;4969733;28;20260;-67
2023/03/21 00:53:17;;;;;;;19.45;15.13;;;;;;;13.58;40.27;94747.41;4965698;28;20224;-67
2023/03/21 00:55:44;;;;;;;28.10;14.55;;;;;;;13.63;39.99;94752.13;4969919;28;20236;-68
2023/03/21 00:58:10;;;;;;;20.33;15.57;;;;;;;13.74;40.00;94740.31;4969711;28;20239;-69
2023/03/21 01:00:36;;;;;;;21.33;14.20;;;;;;;13.56;40.69;94743.28;4966732;28;20189;-65
2023/03/21 01:03:04;;;;;;;21.27;13.70;;;;;;;13.50;40.93;94742.19;4967471;28;20248;-65
2023/03/21 01:08:19;;;;;;;17.88;13.55;;;;;;;13.44;41.00;94738.44;4965403;28;20778;-68
2023/03/21 01:10:47;;;;;;;19.75;14.20;;;;;;;13.52;40.68;94737.53;4969093;28;20223;-68
2023/03/21 01:13:16;;;;;;;18.25;13.65;;;;;;;13.49;41.05;94737.06;4971277;28;20588;-67
2023/03/21 01:15:47;;;;;;;20.27;15.45;;;;;;;13.44;41.00;94742.88;4965429;28;20294;-69
2023/03/21 01:18:14;;;;;;;18.83;13.98;;;;;;;12.76;42.36;94734.66;4964075;28;20277;-65
2023/03/21 01:20:41;;;;;;;18.40;13.40;;;;;;;13.18;41.43;94736.09;4970164;28;20523;-65
2023/03/21 01:23:07;;;;;;;19.55;13.43;;;;;;;13.32;41.22;94731.09;4968091;28;20691;-65
2023/03/21 01:25:33;;;;;;;18.08;13.68;;;;;;;13.43;40.73;94733.31;4965220;28;20220;-68
2023/03/21 01:27:59;;;;;;;18.70;13.70;;;;;;;13.37;41.12;94734.84;4968476;28;20219;-68
2023/03/21 01:30:25;;;;;;;16.92;13.35;;;;;;;13.25;41.05;94731.72;4969063;28;20251;-68
2023/03/21 01:32:50;;;;;;;19.92;14.50;;;;;;;13.17;41.45;94733.59;4965948;28;20232;-68
2023/03/21 01:35:16;;;;;;;15.73;12.50;;;;;;;13.11;41.28;94729.03;4966406;28;20229;-66
2023/03/21 01:37:42;;;;;;;15.45;12.30;;;;;;;13.11;41.25;94734.31;4968851;28;20220;-68
2023/03/21 01:40:11;;;;;;;16.48;13.90;;;;;;;13.19;41.67;94736.91;4967188;28;20228;-68
2023/03/21 01:42:38;;;;;;;16.25;13.15;;;;;;;12.92;41.63;94735.56;4968961;28;20188;-68
2023/03/21 01:45:25;;;;;;;22.95;14.13;;;;;;;12.87;41.91;94732.63;4997845;28;20216;-70
2023/03/21 01:47:50;;;;;;;14.32;12.90;;;;;;;12.73;42.04;94740.28;4998854;28;20566;-69
2023/03/21 01:50:20;;;;;;;16.40;13.35;;;;;;;12.78;42.18;94735.31;4968505;28;20232;-70
2023/03/21 01:52:48;;;;;;;16.88;13.35;;;;;;;12.96;41.79;94744.78;4967276;28;20226;-69
2023/03/21 01:55:16;;;;;;;16.10;12.70;;;;;;;12.72;42.68;94733.38;4966251;28;20236;-68
2023/03/21 01:57:52;;;;;;;14.70;13.05;;;;;;;12.57;42.49;94735.06;4963121;28;20197;-64
2023/03/21 02:00:21;;;;;;;17.77;13.43;;;;;;;12.34;43.22;94727.88;4970043;28;20187;-68
2023/03/21 02:02:50;;;;;;;15.90;12.38;;;;;;;12.66;42.29;94735.84;4964373;28;20215;-66
2023/03/21 02:05:31;;;;;;;15.43;12.02;;;;;;;12.73;42.42;94732.38;4980711;28;20228;-69
2023/03/21 02:07:57;;;;;;;13.98;12.40;;;;;;;12.55;42.55;94732.59;4984759;28;20219;-67
2023/03/21 02:10:23;;;;;;;14.30;11.57;;;;;;;12.48;42.59;94729.00;4969824;28;20226;-68
2023/03/21 02:12:48;;;;;;;16.52;12.52;;;;;;;12.26;42.92;94725.28;4969343;28;20244;-68
2023/03/21 02:15:14;;;;;;;16.02;12.30;;;;;;;12.20;43.11;94733.03;4968914;28;20191;-68
2023/03/21 02:17:49;;;;;;;15.10;11.95;;;;;;;12.17;43.21;94725.47;4966672;28;20224;-68
2023/03/21 02:20:36;;;;;;;13.32;11.77;;;;;;;12.00;43.55;94719.41;4998988;28;20270;-67
2023/03/21 02:23:13;;;;;;;15.80;11.85;;;;;;;12.11;43.29;94717.25;4966662;28;20225;-65
2023/03/21 02:26:06;;;;;;;16.60;12.10;;;;;;;12.18;42.93;94724.47;4995189;28;20232;-67
2023/03/21 02:28:45;;;;;;;16.90;12.88;;;;;;;12.10;42.97;94720.84;4961793;28;20225;-69
2023/03/21 02:31:23;;;;;;;17.00;12.00;;;;;;;12.28;42.64;94717.22;4977569;28;20219;-69
2023/03/21 02:33:59;;;;;;;13.80;12.32;;;;;;;12.31;42.39;94717.69;4959832;28;20212;-68
2023/03/21 02:37:16;;;;;;;16.27;11.75;;;;;;;12.40;42.27;94715.81;4980590;28;20200;-66
2023/03/21 02:40:19;;;;;;;15.82;12.27;;;;;;;12.44;42.08;94721.59;4971115;28;20220;-67
2023/03/21 02:43:03;;;;;;;16.48;11.80;;;;;;;12.54;42.48;94722.22;4975542;28;20454;-67
2023/03/21 02:45:39;;;;;;;13.13;11.77;;;;;;;12.14;43.72;94724.00;4969741;28;20958;-68
2023/03/21 02:48:09;;;;;;;13.63;11.60;;;;;;;12.19;43.44;94719.06;4979683;28;20250;-67
2023/03/21 02:50:42;;;;;;;16.05;12.50;;;;;;;12.26;43.44;94714.72;4970615;28;20234;-65
2023/03/21 02:53:11;;;;;;;16.27;12.48;;;;;;;12.28;43.43;94712.75;4975458;28;20264;-68
2023/03/21 02:55:41;;;;;;;15.85;12.05;;;;;;;12.08;44.03;94711.47;4988163;28;20232;-68
2023/03/21 02:58:09;;;;;;;15.30;11.75;;;;;;;12.16;43.86;94716.72;4974819;28;20222;-65
2023/03/21 03:00:35;;;;;;;15.40;12.63;;;;;;;12.29;43.51;94714.38;4964734;28;20203;-68
2023/03/21 03:03:02;;;;;;;15.60;12.18;;;;;;;12.20;44.08;94720.69;4978122;28;20232;-67
2023/03/21 03:05:32;;;;;;;13.20;11.25;;;;;;;12.24;43.72;94708.81;4984665;28;20224;-69
2023/03/21 03:08:19;;;;;;;21.25;13.02;;;;;;;12.31;43.64;94720.31;4975634;28;20891;-69
2023/03/21 03:11:06;;;;;;;16.67;12.25;;;;;;;12.27;43.56;94726.94;4978206;28;20230;-70
2023/03/21 03:13:48;;;;;;;15.93;11.90;;;;;;;12.18;43.96;94722.66;4966210;28;20429;-69
2023/03/21 03:16:26;;;;;;;14.85;11.70;;;;;;;12.22;43.60;94710.81;4950186;28;20300;-70
2023/03/21 03:18:58;;;;;;;20.38;11.32;;;;;;;12.18;43.84;94717.38;4984984;28;20197;-65
2023/03/21 03:21:33;;;;;;;16.38;12.27;;;;;;;12.17;44.12;94721.03;4970371;28;20203;-68
2023/03/21 03:24:07;;;;;;;13.45;10.95;;;;;;;12.05;44.21;94727.63;4964678;28;20211;-69
2023/03/21 03:27:17;;;;;;;14.00;12.13;;;;;;;11.97;44.33;94723.19;4997647;28;20247;-68
2023/03/21 03:29:46;;;;;;;17.25;11.98;;;;;;;11.94;44.59;94720.06;4967875;28;20296;-69
2023/03/21 03:32:15;;;;;;;15.98;11.55;;;;;;;12.04;44.48;94720.72;4968909;28;20302;-68
2023/03/21 03:34:55;;;;;;;14.43;11.80;;;;;;;12.03;44.11;94724.34;4968096;28;20244;-68
2023/03/21 03:37:25;;;;;;;16.73;11.93;;;;;;;12.03;44.31;94727.81;4970558;28;20641;-68
2023/03/21 03:40:17;;;;;;;16.17;12.07;;;;;;;11.97;44.31;94720.56;4968197;28;20196;-67
2023/03/21 03:42:52;;;;;;;18.98;12.45;;;;;;;11.79;44.84;94722.56;4995552;28;20279;-67
2023/03/21 03:45:22;;;;;;;19.35;12.75;;;;;;;11.17;46.55;94723.00;4966449;28;20184;-67
2023/03/21 03:48:17;;;;;;;15.15;11.95;;;;;;;11.61;45.40;94726.16;4969399;28;20259;-64
2023/03/21 03:51:12;;;;;;;16.35;11.50;;;;;;;11.47;45.55;94721.56;4952810;28;20307;-67
2023/03/21 03:53:51;;;;;;;15.38;11.25;;;;;;;11.55;45.33;94721.56;4962380;28;20228;-67
2023/03/21 03:56:17;;;;;;;14.43;11.40;;;;;;;11.64;45.25;94715.31;4969352;28;20228;-67
2023/03/21 03:58:43;;;;;;;15.90;11.40;;;;;;;11.60;44.70;94718.41;4998679;28;20235;-67
2023/03/21 04:01:08;;;;;;;14.77;10.95;;;;;;;11.58;44.47;94715.97;4971038;28;20256;-65
2023/03/21 04:03:38;;;;;;;16.67;11.18;;;;;;;11.55;45.00;94723.38;4969209;28;20668;-70
2023/03/21 04:06:04;;;;;;;16.83;11.45;;;;;;;11.54;45.24;94716.47;4966729;28;20315;-67
2023/03/21 04:08:29;;;;;;;14.15;10.25;;;;;;;11.60;45.02;94713.16;4963600;28;20355;-65
2023/03/21 04:10:55;;;;;;;17.02;12.07;;;;;;;11.50;45.77;94713.34;4970465;28;20298;-65
2023/03/21 04:13:21;;;;;;;18.02;11.38;;;;;;;11.33;46.40;94732.72;4968815;28;20750;-66
2023/03/21 04:15:46;;;;;;;16.30;12.07;;;;;;;11.40;46.40;94726.66;4970942;28;20204;-66
2023/03/21 04:18:12;;;;;;;16.20;12.35;;;;;;;11.35;46.31;94726.31;4973351;28;20188;-66
2023/03/21 04:20:37;;;;;;;16.60;11.95;;;;;;;11.44;46.13;94732.41;4967151;28;20216;-65
2023/03/21 04:23:04;;;;;;;19.02;11.95;;;;;;;11.47;46.33;94714.50;4969145;28;20220;-65
2023/03/21 04:25:32;;;;;;;26.33;13.35;;;;;;;11.40;46.25;94724.03;4967695;28;20221;-65
2023/03/21 04:27:57;;;;;;;24.35;13.20;;;;;;;11.32;46.44;94713.50;4998423;28;20232;-66
2023/03/21 04:30:23;;;;;;;34.70;14.57;;;;;;;11.26;46.32;94706.25;4970882;28;20235;-63
2023/03/21 04:32:53;;;;;;;25.15;13.50;;;;;;;11.13;47.04;94711.19;4966806;28;20275;-62
2023/03/21 04:35:19;;;;;;;25.40;13.02;;;;;;;11.18;46.75;94711.50;4994377;28;20241;-67
2023/03/21 04:37:45;;;;;;;30.83;13.93;;;;;;;11.18;46.75;94719.41;4970274;28;20331;-66
2023/03/21 04:40:11;;;;;;;28.70;13.52;;;;;;;11.21;46.93;94717.25;4968503;28;20224;-68
2023/03/21 04:42:37;;;;;;;24.25;12.70;;;;;;;11.16;46.99;94722.19;4984784;28;20215;-68
2023/03/21 04:45:03;;;;;;;20.10;12.98;;;;;;;11.19;46.99;94719.22;4970422;28;20224;-70
2023/03/21 04:47:29;;;;;;;23.80;12.90;;;;;;;11.10;47.13;94720.22;4969674;28;20216;-69
2023/03/21 04:49:55;;;;;;;36.88;14.95;;;;;;;11.16;46.99;94714.28;4968637;28;20228;-67
2023/03/21 04:52:21;;;;;;;34.92;14.57;;;;;;;11.24;47.10;94722.19;4969786;28;20224;-67
2023/03/21 04:54:47;;;;;;;30.17;13.88;;;;;;;11.14;47.16;94720.72;4977446;28;20206;-65
2023/03/21 04:57:12;;;;;;;27.38;13.02;;;;;;;11.13;47.11;94730.41;4971590;28;20196;-63
2023/03/21 04:59:38;;;;;;;16.30;11.20;;;;;;;11.21;46.52;94719.91;4964485;28;20228;-64
2023/03/21 05:02:03;;;;;;;19.88;11.80;;;;;;;11.14;46.80;94726.78;4969296;28;20216;-65
2023/03/21 05:04:29;;;;;;;26.52;12.60;;;;;;;11.12;47.08;94734.03;4968532;28;20241;-68
2023/03/21 05:06:55;;;;;;;25.60;12.90;;;;;;;11.15;46.66;94723.19;4995133;28;20197;-68
2023/03/21 05:09:21;;;;;;;33.65;13.57;;;;;;;11.27;46.65;94734.22;4995807;28;20215;-68
2023/03/21 05:11:48;;;;;;;31.20;14.40;;;;;;;11.36;46.50;94728.00;4973211;28;20221;-66
2023/03/21 05:14:20;;;;;;;37.85;13.90;;;;;;;11.35;46.40;94731.59;4964168;28;20262;-70
2023/03/21 05:16:54;;;;;;;28.17;15.00;;;;;;;11.38;46.20;94736.53;4965459;28;20220;-70
2023/03/21 05:19:39;;;;;;;21.55;13.25;;;;;;;11.31;46.72;94732.91;4964958;28;20598;-68
2023/03/21 05:22:08;;;;;;;24.10;13.15;;;;;;;11.32;46.59;94737.19;4995241;28;20306;-68
2023/03/21 05:24:36;;;;;;;31.73;13.80;;;;;;;11.22;47.24;94739.13;4967598;28;20185;-65
2023/03/21 05:27:02;;;;;;;26.23;14.85;;;;;;;11.12;47.26;94731.41;4960629;28;20228;-70
2023/03/21 05:29:30;;;;;;;31.65;15.57;;;;;;;10.99;47.69;94734.50;4983083;28;20776;-69
2023/03/21 05:31:57;;;;;;;24.95;15.40;;;;;;;11.08;47.58;94730.06;4956511;28;20242;-68
2023/03/21 05:34:23;;;;;;;27.83;15.68;;;;;;;11.22;47.34;94737.31;4954497;28;20240;-68
2023/03/21 05:36:48;;;;;;;42.53;14.90;;;;;;;11.40;47.30;94737.19;4961773;28;20278;-68
2023/03/21 05:39:14;;;;;;;39.70;15.23;;;;;;;11.51;46.78;94733.41;4961431;28;20196;-63
2023/03/21 05:41:39;;;;;;;41.38;17.77;;;;;;;11.55;46.49;94737.38;4958807;28;20246;-65
2023/03/21 05:44:05;;;;;;;42.50;18.02;;;;;;;11.58;46.55;94737.03;4952917;28;20228;-65
2023/03/21 05:46:30;;;;;;;33.40;15.10;;;;;;;11.39;47.03;94732.09;4955090;28;20244;-65
2023/03/21 05:48:56;;;;;;;33.95;13.40;;;;;;;11.39;46.54;94729.47;4960012;28;20279;-68
2023/03/21 05:51:21;;;;;;;22.27;13.38;;;;;;;11.41;46.37;94722.22;4957656;28;20199;-69
2023/03/21 05:53:47;;;;;;;20.25;12.82;;;;;;;11.61;45.72;94726.16;4957292;28;20235;-68
2023/03/21 05:56:13;;;;;;;33.85;13.68;;;;;;;11.70;46.44;94725.16;4960326;28;20312;-66
2023/03/21 05:58:38;;;;;;;26.75;14.30;;;;;;;11.72;45.98;94711.03;4958421;28;20244;-66
2023/03/21 06:01:04;;;;;;;31.58;14.00;;;;;;;11.83;46.06;94713.31;4958127;28;20247;-64
2023/03/21 06:03:29;;;;;;;32.55;15.35;;;;;;;11.79;45.66;94699.66;4959136;28;20231;-64
2023/03/21 06:05:55;;;;;;;34.80;16.25;;;;;;;11.89;45.49;94705.63;4960225;28;20554;-65
2023/03/21 06:08:20;;;;;;;30.27;16.58;;;;;;;11.93;45.23;94713.19;4959270;28;20223;-65
2023/03/21 06:10:46;;;;;;;27.73;15.50;;;;;;;12.07;45.29;94702.75;4965532;28;20213;-64
2023/03/21 06:13:11;;;;;;;38.03;17.60;;;;;;;12.12;45.33;94697.81;4959760;28;20233;-65
2023/03/21 06:15:38;;;;;;;34.83;17.50;;;;;;;12.30;45.06;94700.22;4965156;28;20197;-64
2023/03/21 06:18:03;;;;;;;43.25;16.73;;;;;;;12.35;44.73;94697.09;4975683;28;20232;-67
2023/03/21 06:20:29;;;;;;;30.17;16.27;;;;;;;12.12;45.51;94697.81;4959582;28;20223;-70
2023/03/21 06:22:54;;;;;;;40.13;17.42;;;;;;;12.03;46.24;94698.81;4960384;28;20217;-68
2023/03/21 06:25:20;;;;;;;18.92;10.48;;;;;;;11.87;44.88;94698.88;4945338;28;20251;-68
2023/03/21 06:27:46;;;;;;;29.45;14.45;;;;;;;11.95;46.55;94698.84;4991859;28;20188;-66
2023/03/21 06:30:12;;;;;;;27.30;13.25;;;;;;;12.12;45.46;94692.53;4964270;28;20216;-66
2023/03/21 06:32:37;;;;;;;25.23;15.52;;;;;;;12.13;46.02;94690.72;4986766;28;20251;-67
2023/03/21 06:35:03;;;;;;;30.92;15.93;;;;;;;12.12;45.69;94687.25;4961257;28;20295;-67
2023/03/21 06:37:29;;;;;;;29.38;15.05;;;;;;;12.20;45.40;94691.69;4990946;28;20220;-67
2023/03/21 06:39:54;;;;;;;27.15;14.60;;;;;;;12.45;45.16;94689.78;4963127;28;20203;-66
2023/03/21 06:42:20;;;;;;;26.60;15.85;;;;;;;12.65;44.47;94700.75;4964988;28;20685;-67
2023/03/21 06:44:45;;;;;;;22.70;13.30;;;;;;;12.66;44.32;94702.38;4965561;28;20228;-70
2023/03/21 06:47:11;;;;;;;18.65;11.30;;;;;;;12.63;43.62;94700.09;4961068;28;20216;-70
2023/03/21 06:49:36;;;;;;;18.30;10.90;;;;;;;12.70;43.06;94700.25;4961491;28;20231;-70
2023/03/21 06:52:02;;;;;;;17.50;10.98;;;;;;;12.77;42.86;94709.91;4965732;28;20998;-70
2023/03/21 06:54:28;;;;;;;13.80;10.40;;;;;;;12.82;43.07;94717.31;4966201;28;20224;-70
2023/03/21 06:56:53;;;;;;;21.67;10.80;;;;;;;12.99;42.73;94710.13;4964596;28;20220;-70
2023/03/21 06:59:20;;;;;;;14.40;10.88;;;;;;;13.11;42.57;94713.19;4966891;28;20236;-68
2023/03/21 07:01:45;;;;;;;18.98;11.18;;;;;;;13.19;42.37;94713.16;4964244;28;20231;-67
2023/03/21 07:04:11;;;;;;;17.02;10.13;;;;;;;13.43;41.85;94714.81;4963395;28;20224;-65
2023/03/21 07:06:40;;;;;;;16.58;8.27;;;;;;;13.60;41.03;94704.94;4994192;28;20196;-75
2023/03/21 07:09:05;;;;;;;12.80;8.27;;;;;;;13.50;41.07;94715.78;4960390;28;20240;-68
2023/03/21 07:11:31;;;;;;;11.80;7.90;;;;;;;13.57;40.36;94707.94;4955900;28;20228;-69
2023/03/21 07:13:57;;;;;;;12.93;8.25;;;;;;;13.74;40.78;94716.53;4989566;28;20240;-69
2023/03/21 07:16:23;;;;;;;12.48;8.30;;;;;;;13.86;40.01;94707.19;4960719;28;20220;-72
2023/03/21 07:18:49;;;;;;;11.73;9.15;;;;;;;13.70;39.90;94713.44;4960301;28;20211;-74
2023/03/21 07:21:15;;;;;;;12.75;9.65;;;;;;;13.72;39.54;94708.00;4994172;28;20204;-70
2023/03/21 07:23:41;;;;;;;15.13;9.02;;;;;;;14.00;39.47;94724.09;4964508;28;20216;-71
2023/03/21 07:26:06;;;;;;;15.57;9.40;;;;;;;13.61;40.06;94728.56;4963526;28;20256;-68
2023/03/21 07:28:32;;;;;;;16.58;10.48;;;;;;;13.71;39.70;94725.66;4968137;28;20766;-71
2023/03/21 07:31:01;;;;;;;21.17;12.45;;;;;;;13.63;39.99;94712.50;4959759;28;20356;-70
2023/03/21 07:33:27;;;;;;;22.15;17.15;;;;;;;14.09;39.31;94720.38;4971767;28;20206;-71
2023/03/21 07:35:54;;;;;;;17.88;12.10;;;;;;;13.81;39.97;94715.66;4969231;28;20225;-69
2023/03/21 07:38:20;;;;;;;17.27;12.30;;;;;;;13.88;39.95;94729.00;4995056;28;20223;-72
2023/03/21 07:40:47;;;;;;;30.00;20.13;;;;;;;13.84;42.21;94723.22;4989971;28;20221;-68
2023/03/21 07:43:13;;;;;;;29.33;21.42;;;;;;;13.87;42.67;94716.75;4966541;28;20223;-70
2023/03/21 07:45:39;;;;;;;31.20;21.58;;;;;;;14.03;42.23;94713.16;4970510;28;20192;-70
2023/03/21 07:48:05;;;;;;;32.95;22.13;;;;;;;14.04;42.81;94714.81;4962770;28;20188;-65
2023/03/21 07:50:30;;;;;;;33.17;22.58;;;;;;;14.04;42.61;94712.97;4978509;28;20239;-66
2023/03/21 07:52:56;;;;;;;36.45;22.85;;;;;;;14.24;42.41;94720.38;4969038;28;20228;-71
2023/03/21 07:55:21;;;;;;;36.10;21.92;;;;;;;14.20;42.54;94721.75;4971507;28;20703;-66
2023/03/21 07:57:50;;;;;;;33.05;22.17;;;;;;;14.22;42.02;94728.50;4971785;28;20196;-67
2023/03/21 08:00:23;;;;;;;36.30;21.58;;;;;;;14.17;42.12;94730.06;4971211;28;20204;-68
2023/03/21 08:02:53;;;;;;;29.42;20.08;;;;;;;14.60;40.62;94727.63;4969592;28;20216;-65
2023/03/21 08:05:49;;;;;;;30.02;20.55;;;;;;;14.21;41.18;94721.56;4992062;28;20227;-65
2023/03/21 08:08:14;;;;;;;22.63;18.08;;;;;;;14.25;40.73;94719.38;4926582;29;20379;-66
2023/03/21 08:10:43;;;;;;;26.55;19.70;;;;;;;14.45;40.67;94720.47;4929018;29;20280;-66
2023/03/21 08:13:08;;;;;;;29.10;19.58;;;;;;;14.45;40.90;94722.31;4926351;29;20240;-66
2023/03/21 08:15:34;;;;;;;21.15;16.92;;;;;;;14.56;40.00;94724.50;4929028;28;20188;-66
2023/03/21 08:18:00;;;;;;;24.20;15.73;;;;;;;14.68;39.28;94727.53;4938377;29;20230;-66
2023/03/21 08:20:26;;;;;;;25.38;15.75;;;;;;;14.71;39.13;94730.63;4944605;28;20229;-66
2023/03/21 08:22:51;;;;;;;23.63;15.88;;;;;;;14.75;38.55;94721.31;4934023;29;20217;-63
2023/03/21 08:25:19;;;;;;;22.25;14.60;;;;;;;14.78;38.10;94710.38;4925588;29;20297;-69
2023/03/21 08:27:45;;;;;;;19.08;14.55;;;;;;;14.85;37.80;94706.97;4917141;28;20282;-66
2023/03/21 08:30:14;;;;;;;25.55;16.40;;;;;;;14.93;37.70;94710.31;4932657;29;20193;-69
2023/03/21 08:32:41;;;;;;;19.83;12.50;;;;;;;15.06;37.14;94696.41;4924017;29;20229;-69
2023/03/21 08:35:11;;;;;;;19.38;13.32;;;;;;;15.12;36.69;94703.59;4946046;28;20229;-68
2023/03/21 08:37:37;;;;;;;20.00;12.80;;;;;;;15.21;36.50;94710.44;4925477;29;20229;-69
2023/03/21 08:40:12;;;;;;;15.65;12.15;;;;;;;15.25;36.31;94707.41;4946419;28;20306;-69
2023/03/21 08:42:39;;;;;;;16.90;11.50;;;;;;;15.08;35.93;94710.28;4926123;28;20200;-69
2023/03/21 08:45:05;;;;;;;15.73;11.13;;;;;;;15.14;36.29;94708.72;4955197;28;20240;-68
2023/03/21 08:47:31;;;;;;;15.63;10.95;;;;;;;15.27;35.14;94716.00;4964843;28;20274;-68
2023/03/21 08:49:58;;;;;;;16.83;11.50;;;;;;;15.16;35.66;94719.97;4959933;28;20232;-68
2023/03/21 08:52:26;;;;;;;15.63;11.07;;;;;;;15.21;35.50;94707.78;4961363;28;20228;-65
2023/03/21 08:54:52;;;;;;;13.57;10.32;;;;;;;15.31;35.21;94707.47;4968514;28;20221;-67
2023/03/21 08:57:18;;;;;;;13.18;9.73;;;;;;;15.36;34.91;94701.59;4967794;28;20322;-66
2023/03/21 08:59:44;;;;;;;14.50;9.43;;;;;;;15.40;34.75;94710.84;4965332;28;20224;-72
2023/03/21 09:02:13;;;;;;;11.65;9.23;;;;;;;15.46;34.61;94703.97;4971360;28;20246;-67
2023/03/21 09:04:39;;;;;;;14.48;10.23;;;;;;;15.43;34.90;94692.72;4972282;28;20277;-68
2023/03/21 09:07:05;;;;;;;12.18;9.30;;;;;;;15.50;34.82;94699.91;4967648;28;20216;-67
2023/03/21 09:09:33;;;;;;;14.45;9.98;;;;;;;15.44;34.50;94694.34;4969172;28;20192;-70
2023/03/21 09:11:59;;;;;;;15.02;9.75;;;;;;;15.32;34.56;94689.75;4965057;28;20240;-70
2023/03/21 09:14:24;;;;;;;14.57;10.38;;;;;;;15.32;34.81;94684.47;4988976;28;20366;-70
2023/03/21 09:16:49;;;;;;;15.27;9.23;;;;;;;14.95;35.29;94689.78;4965796;28;20217;-66
2023/03/21 09:19:16;;;;;;;12.95;8.98;;;;;;;15.00;35.13;94684.75;4966529;28;20224;-68
2023/03/21 09:21:42;;;;;;;10.00;8.40;;;;;;;15.28;34.72;94688.50;4953652;28;20205;-68
2023/03/21 09:24:08;;;;;;;12.00;8.27;;;;;;;15.40;33.76;94679.03;4962963;28;20271;-64
2023/03/21 09:26:34;;;;;;;19.20;8.73;;;;;;;15.48;33.99;94673.63;4967200;28;20695;-68
2023/03/21 09:28:59;;;;;;;11.48;8.43;;;;;;;15.64;33.86;94667.22;4993556;28;20225;-69
2023/03/21 09:31:29;;;;;;;10.45;8.88;;;;;;;15.67;33.45;94658.88;4964483;28;20227;-65
2023/03/21 09:33:56;;;;;;;17.35;9.95;;;;;;;15.88;33.62;94666.00;4963613;28;20303;-65
2023/03/21 09:36:23;;;;;;;11.38;9.90;;;;;;;16.01;33.52;94660.81;4967468;28;20223;-65
2023/03/21 09:38:50;;;;;;;14.18;9.85;;;;;;;16.00;33.31;94658.34;4959236;28;20255;-72
2023/03/21 09:41:24;;;;;;;12.07;9.48;;;;;;;15.96;33.26;94646.47;4970841;28;20224;-75
2023/03/21 09:44:08;;;;;;;17.60;13.57;;;;;;;16.63;32.97;94637.88;4973967;28;20228;-66
2023/03/21 09:47:09;;;;;;;14.25;12.30;;;;;;;15.88;34.40;94632.38;4997011;28;20220;-69
2023/03/21 09:49:42;;;;;;;17.02;12.63;;;;;;;15.91;34.62;94643.59;4992744;28;20224;-68
2023/03/21 09:52:23;;;;;;;14.07;11.90;;;;;;;15.96;34.36;94641.16;4955776;28;20248;-68
2023/03/21 09:54:49;;;;;;;16.73;12.57;;;;;;;15.95;34.23;94637.69;4976270;28;20212;-69
2023/03/21 09:57:18;;;;;;;20.67;12.60;;;;;;;16.19;33.92;94641.72;4972540;28;20191;-68
2023/03/21 09:59:47;;;;;;;17.95;11.75;;;;;;;16.32;33.60;94646.28;4992270;28;20233;-72
2023/03/21 10:02:34;;;;;;;21.65;13.25;;;;;;;16.47;33.29;94646.97;4964030;28;20223;-74
2023/03/21 10:05:05;;;;;;;15.75;12.70;;;;;;;16.03;34.29;94642.03;4996810;28;20268;-73
2023/03/21 10:07:38;;;;;;;21.67;13.57;;;;;;;16.36;34.39;94633.44;4970071;28;20244;-67
2023/03/21 10:10:06;;;;;;;19.13;12.77;;;;;;;16.44;34.45;94633.25;4964963;28;20326;-65
2023/03/21 10:12:31;;;;;;;17.38;14.57;;;;;;;16.49;34.25;94621.06;4963316;28;20649;-64
2023/03/21 10:15:00;;;;;;;19.30;13.80;;;;;;;16.74;34.56;94628.50;4966721;28;20283;-68
2023/03/21 10:17:32;;;;;;;18.98;13.30;;;;;;;16.72;34.50;94626.03;4959856;28;20256;-65
2023/03/21 10:20:21;;;;;;;24.65;14.68;;;;;;;16.99;33.52;94610.22;4967131;28;20250;-67
2023/03/21 10:22:50;;;;;;;18.15;12.95;;;;;;;17.10;33.57;94606.16;4956420;28;20221;-67
2023/03/21 10:25:30;;;;;;;21.77;14.18;;;;;;;17.31;33.04;94610.47;4949447;28;20226;-68
2023/03/21 10:27:56;;;;;;;20.48;13.65;;;;;;;17.30;32.52;94606.19;4961675;28;20203;-68
2023/03/21 10:30:37;;;;;;;21.10;14.05;;;;;;;17.46;31.79;94604.97;4963509;28;20200;-66
2023/03/21 10:33:08;;;;;;;21.80;13.48;;;;;;;16.96;32.88;94611.44;4965684;28;20232;-67
2023/03/21 10:35:35;;;;;;;19.05;13.30;;;;;;;17.19;32.39;94608.41;4970598;28;20255;-65
2023/03/21 10:38:03;;;;;;;15.75;13.52;;;;;;;17.31;32.32;94613.94;4958861;28;20227;-65
2023/03/21 10:40:28;;;;;;;19.52;13.43;;;;;;;17.57;31.77;94612.34;4962012;28;20227;-68
2023/03/21 10:42:56;;;;;;;16.05;13.20;;;;;;;17.70;31.51;94617.66;4973188;28;20192;-68
2023/03/21 10:45:22;;;;;;;18.75;13.57;;;;;;;17.76;31.39;94622.13;4970710;28;20288;-67
2023/03/21 10:47:50;;;;;;;20.27;12.68;;;;;;;17.84;31.07;94621.94;4967133;28;20271;-68
2023/03/21 10:50:25;;;;;;;17.70;12.82;;;;;;;17.98;30.72;94621.94;4969197;28;20283;-68
2023/03/21 10:52:59;;;;;;;16.10;10.65;;;;;;;17.87;29.55;94612.75;4983896;28;20225;-68
2023/03/21 10:55:27;;;;;;;14.20;9.75;;;;;;;17.10;30.73;94612.28;4961548;28;20303;-68
2023/03/21 10:58:00;;;;;;;14.23;9.20;;;;;;;17.79;29.49;94602.31;4971222;28;20193;-69
2023/03/21 11:00:30;;;;;;;14.48;9.43;;;;;;;17.71;29.67;94605.16;4969731;28;20191;-68
2023/03/21 11:02:56;;;;;;;14.38;9.40;;;;;;;17.91;29.57;94589.19;4997532;28;20228;-69
2023/03/21 11:05:26;;;;;;;14.80;10.18;;;;;;;18.06;30.02;94587.94;4965600;28;20371;-67
2023/03/21 11:08:01;;;;;;;14.95;10.55;;;;;;;18.06;30.22;94589.78;4975565;28;20224;-67
2023/03/21 11:10:34;;;;;;;15.00;10.30;;;;;;;18.23;29.61;94577.69;4958695;28;20223;-67
2023/03/21 11:13:06;;;;;;;13.65;10.27;;;;;;;18.05;29.47;94586.31;4968052;28;20646;-68
2023/03/21 11:15:51;;;;;;;13.50;9.57;;;;;;;18.15;29.69;94588.56;4973852;28;20188;-69
2023/03/21 11:18:22;;;;;;;13.98;9.13;;;;;;;18.43;29.06;94590.91;4970537;28;20220;-68
2023/03/21 11:20:57;;;;;;;9.63;6.50;;;;;;;18.40;28.12;94585.19;4966232;28;20226;-67
2023/03/21 11:23:29;;;;;;;6.93;6.22;;;;;;;18.18;28.35;94582.00;4969113;28;20226;-67
2023/03/21 11:25:57;;;;;;;8.77;5.32;;;;;;;18.05;28.41;94578.34;4964573;28;20231;-67
2023/03/21 11:28:32;;;;;;;7.90;5.13;;;;;;;18.33;28.33;94579.88;4959151;28;20255;-68
2023/03/21 11:31:00;;;;;;;8.63;5.38;;;;;;;18.53;27.92;94563.84;4960197;28;20196;-66
2023/03/21 11:33:30;;;;;;;9.77;6.30;;;;;;;18.72;27.92;94562.91;4966427;28;20204;-67